Terminal Aerodrome Forecast
Issued by NWS Caribou, ME

Home | Current Version | Previous Version | Text Only | Print | Product List | Glossary On
Versions: 1 2 3 4 5 6 7 8 9 10 11 12 13 14 15 16 17 18 19
572
FTUS41 KCAR 140218 AAA
TAFCAR
TAF AMD
KCAR 140218Z 1402/1424 34012G22KT 3SM -SHSN OVC040
      TEMPO 1402/1405 1 1/2SM -SN BR OVC035
     FM140500 36012G22KT P6SM VCSH OVC040
     FM140800 32012G22KT P6SM BKN040
     FM141800 27012G22KT P6SM SCT040=

USA.gov is the U.S. government's official web portal to all federal, state and local government web resources and services.